createdAt,value
2023-05-16T00:01:14.957Z,98297.13
2023-05-16T00:04:00.254Z,98290.34
2023-05-16T00:06:46.125Z,98305.47
2023-05-16T00:09:31.364Z,98303.13
2023-05-16T00:12:17.845Z,98310.22
2023-05-16T00:15:05.377Z,98318.22
2023-05-16T00:17:51.924Z,98316.25
2023-05-16T00:20:37.632Z,98325.34
2023-05-16T00:23:23.366Z,98323.34
2023-05-16T00:26:08.831Z,98325.34
2023-05-16T00:28:54.253Z,98330.13
2023-05-16T00:31:39.503Z,98334.09
2023-05-16T00:34:24.834Z,98329.31
2023-05-16T00:37:11.184Z,98330.91
2023-05-16T00:39:56.508Z,98325.78
2023-05-16T00:42:41.904Z,98331.00
2023-05-16T00:45:27.268Z,98331.00
2023-05-16T00:48:15.104Z,98344.88
2023-05-16T00:51:01.924Z,98346.88
2023-05-16T00:53:47.315Z,98347.66
2023-05-16T00:56:33.990Z,98347.66
2023-05-16T00:59:20.407Z,98348.44
2023-05-16T01:02:06.012Z,98349.66
2023-05-16T01:04:51.908Z,98342.09
2023-05-16T01:07:37.446Z,98346.88
2023-05-16T01:10:23.601Z,98355.66
2023-05-16T01:13:18.377Z,98361.19
2023-05-16T01:16:31.614Z,98366.75
2023-05-16T01:19:47.344Z,98368.31
2023-05-16T01:22:47.757Z,98365.97
2023-05-16T01:25:56.690Z,98368.75
2023-05-16T01:28:44.350Z,98375.09
2023-05-16T01:31:30.471Z,98370.75
2023-05-16T01:34:16.153Z,98368.00
2023-05-16T01:37:19.807Z,98370.00
2023-05-16T01:40:12.871Z,98376.31
2023-05-16T01:43:03.092Z,98374.75
2023-05-16T01:45:55.297Z,98370.00
2023-05-16T01:49:13.285Z,98373.19
2023-05-16T01:52:02.346Z,98375.97
2023-05-16T01:54:48.730Z,98377.22
2023-05-16T01:57:35.566Z,98377.66
2023-05-16T02:00:21.536Z,98390.31
2023-05-16T02:03:07.235Z,98393.53
2023-05-16T02:05:52.502Z,98388.41
2023-05-16T02:08:37.891Z,98383.63
2023-05-16T02:11:23.302Z,98383.63
2023-05-16T02:14:08.726Z,98396.31
2023-05-16T02:16:54.933Z,98389.19
2023-05-16T02:19:40.632Z,98389.19
2023-05-16T02:22:26.093Z,98394.75
2023-05-16T02:25:12.476Z,98390.41
2023-05-16T02:27:59.970Z,98381.75
2023-05-16T02:30:45.509Z,98394.88
2023-05-16T02:33:31.074Z,98391.63
2023-05-16T02:36:16.628Z,98381.41
2023-05-16T02:39:04.160Z,98388.50
2023-05-16T02:41:49.498Z,98387.75
2023-05-16T02:44:35.013Z,98397.31
2023-05-16T02:47:20.443Z,98397.31
2023-05-16T02:50:06.356Z,98402.06
2023-05-16T02:52:53.618Z,98410.38
2023-05-16T02:55:39.079Z,98411.63
2023-05-16T02:58:26.199Z,98414.81
2023-05-16T03:01:11.664Z,98424.81
2023-05-16T03:03:57.477Z,98421.25
2023-05-16T03:06:43.268Z,98422.03
2023-05-16T03:09:28.883Z,98434.72
2023-05-16T03:12:15.584Z,98430.03
2023-05-16T03:15:01.975Z,98429.59
2023-05-16T03:17:48.100Z,98431.59
2023-05-16T03:20:33.485Z,98434.38
2023-05-16T03:23:22.409Z,98434.81
2023-05-16T03:26:07.994Z,98447.44
2023-05-16T03:28:53.567Z,98444.66
2023-05-16T03:31:39.299Z,98452.22
2023-05-16T03:34:24.925Z,98446.69
2023-05-16T03:37:11.184Z,98456.25
2023-05-16T03:39:56.920Z,98464.91
2023-05-16T03:42:42.258Z,98466.09
2023-05-16T03:45:27.784Z,98470.13
2023-05-16T03:48:15.130Z,98471.31
2023-05-16T03:51:01.652Z,98476.09
2023-05-16T03:53:47.115Z,98484.44
2023-05-16T03:56:32.325Z,98479.31
2023-05-16T03:59:18.261Z,98484.09
2023-05-16T04:02:04.099Z,98484.84
2023-05-16T04:04:49.712Z,98486.09
2023-05-16T04:07:35.125Z,98481.66
2023-05-16T04:10:20.848Z,98495.19
2023-05-16T04:13:07.246Z,98489.56
2023-05-16T04:15:52.767Z,98497.75
2023-05-16T04:18:38.472Z,98502.00
2023-05-16T04:21:24.024Z,98510.25
2023-05-16T04:24:09.351Z,98515.25
2023-05-16T04:26:55.627Z,98521.50
2023-05-16T04:29:41.145Z,98528.97
2023-05-16T04:32:28.830Z,98530.41
2023-05-16T04:35:14.750Z,98529.09
2023-05-16T04:38:00.281Z,98536.97
2023-05-16T04:40:45.709Z,98548.75
2023-05-16T04:43:31.247Z,98554.22
2023-05-16T04:46:16.627Z,98553.00
2023-05-16T04:49:02.126Z,98554.56
2023-05-16T04:51:48.838Z,98543.47
2023-05-16T04:54:34.604Z,98547.00
2023-05-16T04:57:20.258Z,98545.34
2023-05-16T05:00:12.172Z,98555.69
2023-05-16T05:02:57.702Z,98552.56
2023-05-16T05:05:43.115Z,98547.34
2023-05-16T05:08:28.318Z,98554.13
2023-05-16T05:11:13.555Z,98553.78
2023-05-16T05:13:58.827Z,98562.22
2023-05-16T05:16:44.125Z,98564.22
2023-05-16T05:19:29.576Z,98567.88
2023-05-16T05:22:15.269Z,98566.75
2023-05-16T05:25:00.962Z,98579.19
2023-05-16T05:27:46.405Z,98578.50
2023-05-16T05:30:32.261Z,98583.69
2023-05-16T05:33:20.644Z,98587.38
2023-05-16T05:36:06.344Z,98588.25
2023-05-16T05:38:51.922Z,98581.66
2023-05-16T05:41:38.046Z,98581.31
2023-05-16T05:44:23.538Z,98596.06
2023-05-16T05:47:08.945Z,98599.72
2023-05-16T05:49:54.283Z,98590.25
2023-05-16T05:52:39.958Z,98603.44
2023-05-16T05:55:25.920Z,98598.00
2023-05-16T05:58:11.587Z,98608.75
2023-05-16T06:00:56.887Z,98612.72
2023-05-16T06:03:42.907Z,98615.50
2023-05-16T06:06:28.335Z,98625.50
2023-05-16T06:09:15.129Z,98622.38
2023-05-16T06:12:00.327Z,98632.34
2023-05-16T06:14:45.700Z,98640.28
2023-05-16T06:17:31.192Z,98637.94
2023-05-16T06:20:16.725Z,98639.16
2023-05-16T06:23:02.632Z,98642.38
2023-05-16T06:25:48.045Z,98639.25
2023-05-16T06:28:33.358Z,98645.66
2023-05-16T06:31:18.700Z,98644.88
2023-05-16T06:34:04.342Z,98642.53
2023-05-16T06:36:49.880Z,98645.84
2023-05-16T06:39:34.988Z,98641.59
2023-05-16T06:42:20.707Z,98649.09
2023-05-16T06:45:08.987Z,98640.88
2023-05-16T06:47:57.417Z,98648.91
2023-05-16T06:50:42.851Z,98651.34
2023-05-16T06:53:28.791Z,98654.22
2023-05-16T06:56:14.005Z,98657.00
2023-05-16T06:59:01.727Z,98656.28
2023-05-16T07:01:47.238Z,98661.47
2023-05-16T07:04:32.976Z,98657.16
2023-05-16T07:07:18.358Z,98651.69
2023-05-16T07:10:04.322Z,98662.41
2023-05-16T07:12:49.941Z,98663.28
2023-05-16T07:15:35.379Z,98679.22
2023-05-16T07:18:24.124Z,98668.13
2023-05-16T07:21:09.442Z,98675.31
2023-05-16T07:23:54.956Z,98675.38
2023-05-16T07:26:40.412Z,98680.19
2023-05-16T07:29:27.120Z,98677.06
2023-05-16T07:32:12.569Z,98674.81
2023-05-16T07:34:57.803Z,98689.44
2023-05-16T07:37:43.623Z,98680.88
2023-05-16T07:40:29.560Z,98682.91
2023-05-16T07:43:15.000Z,98684.50
2023-05-16T07:46:01.829Z,98693.22
2023-05-16T07:48:47.643Z,98696.41
2023-05-16T07:51:33.484Z,98688.94
2023-05-16T07:54:18.750Z,98689.34
2023-05-16T07:57:04.259Z,98691.00
2023-05-16T07:59:52.436Z,98696.53
2023-05-16T08:02:38.557Z,98691.50
2023-05-16T08:05:24.533Z,98695.91
2023-05-16T08:08:09.985Z,98693.47
2023-05-16T08:10:55.460Z,98706.13
2023-05-16T08:13:40.882Z,98714.94
2023-05-16T08:16:26.257Z,98718.50
2023-05-16T08:19:12.168Z,98722.09
2023-05-16T08:21:57.387Z,98725.31
2023-05-16T08:24:42.765Z,98730.75
2023-05-16T08:27:28.921Z,98737.53
2023-05-16T08:30:14.972Z,98723.72
2023-05-16T08:33:04.812Z,98724.16
2023-05-16T08:35:52.988Z,98736.84
2023-05-16T08:38:38.241Z,98744.38
2023-05-16T08:41:23.965Z,98763.41
2023-05-16T08:44:12.430Z,98757.47
2023-05-16T08:47:02.071Z,98769.78
2023-05-16T08:49:52.419Z,98767.81
2023-05-16T08:52:40.190Z,98769.41
2023-05-16T08:55:27.384Z,98767.03
2023-05-16T08:58:13.508Z,98769.03
2023-05-16T09:00:58.816Z,98767.47
2023-05-16T09:03:44.621Z,98770.66
2023-05-16T09:06:30.298Z,98773.00
2023-05-16T09:09:15.840Z,98764.31
2023-05-16T09:12:01.353Z,98771.50
2023-05-16T09:14:47.470Z,98772.72
2023-05-16T09:17:42.551Z,98771.50
2023-05-16T09:20:28.776Z,98778.63
2023-05-16T09:23:14.521Z,98778.63
2023-05-16T09:25:59.834Z,98779.41
2023-05-16T09:28:45.377Z,98787.28
2023-05-16T09:31:36.887Z,98794.88
2023-05-16T09:34:22.874Z,98792.88
2023-05-16T09:37:10.299Z,98800.06
2023-05-16T09:39:55.852Z,98796.91
2023-05-16T09:42:44.444Z,98802.47
2023-05-16T09:45:30.821Z,98799.31
2023-05-16T09:48:18.122Z,98799.72
2023-05-16T09:51:06.236Z,98805.63
2023-05-16T09:53:51.976Z,98806.41
2023-05-16T09:56:50.282Z,98810.41
2023-05-16T09:59:37.256Z,98820.63
2023-05-16T10:02:23.327Z,98819.06
2023-05-16T10:05:08.855Z,98819.44
2023-05-16T10:07:56.790Z,98825.41
2023-05-16T10:10:42.715Z,98819.84
2023-05-16T10:13:33.218Z,98810.00
2023-05-16T10:16:21.864Z,98814.31
2023-05-16T10:19:07.453Z,98814.31
2023-05-16T10:22:00.997Z,98812.69
2023-05-16T10:25:05.344Z,98812.75
2023-05-16T10:27:54.229Z,98818.28
2023-05-16T10:30:44.093Z,98824.63
2023-05-16T10:33:29.863Z,98821.00
2023-05-16T10:36:16.483Z,98811.13
2023-05-16T10:39:02.619Z,98807.94
2023-05-16T10:41:48.413Z,98809.50
2023-05-16T10:44:34.239Z,98813.91
2023-05-16T10:47:20.348Z,98803.97
2023-05-16T10:50:06.494Z,98807.09
2023-05-16T10:52:52.986Z,98804.31
2023-05-16T10:56:06.231Z,98801.56
2023-05-16T10:58:53.881Z,98805.47
2023-05-16T11:01:41.415Z,98808.25
2023-05-16T11:04:45.992Z,98796.75
2023-05-16T11:07:36.901Z,98807.06
2023-05-16T11:10:22.465Z,98812.59
2023-05-16T11:13:08.518Z,98811.00
2023-05-16T11:16:29.353Z,98807.06
2023-05-16T11:19:28.075Z,98809.38
2023-05-16T11:22:19.587Z,98804.63
2023-05-16T11:25:07.397Z,98802.22
2023-05-16T11:27:52.656Z,98797.47
2023-05-16T11:30:43.077Z,98788.72
2023-05-16T11:33:34.372Z,98780.41
2023-05-16T11:36:20.034Z,98780.00
2023-05-16T11:39:10.232Z,98784.75
2023-05-16T11:41:56.202Z,98778.84
2023-05-16T11:44:42.165Z,98778.41
2023-05-16T11:47:29.907Z,98782.34
2023-05-16T11:50:22.980Z,98781.50
2023-05-16T11:53:10.132Z,98783.41
2023-05-16T11:55:58.136Z,98770.38
2023-05-16T11:58:45.702Z,98784.91
2023-05-16T12:01:39.225Z,98781.31
2023-05-16T12:04:25.081Z,98789.53
2023-05-16T12:07:10.600Z,98786.34
2023-05-16T12:09:56.038Z,98785.94
2023-05-16T12:12:44.986Z,98775.25
2023-05-16T12:15:31.090Z,98778.75
2023-05-16T12:18:17.373Z,98778.75
2023-05-16T12:21:02.851Z,98777.94
2023-05-16T12:23:48.207Z,98791.03
2023-05-16T12:26:33.928Z,98798.56
2023-05-16T12:29:21.693Z,98805.28
2023-05-16T12:32:08.969Z,98804.13
2023-05-16T12:34:54.835Z,98806.13
2023-05-16T12:37:40.337Z,98808.53
2023-05-16T12:40:33.171Z,98820.03
2023-05-16T12:43:21.810Z,98817.69
2023-05-16T12:46:14.909Z,98818.47
2023-05-16T12:49:06.501Z,98820.09
2023-05-16T12:52:01.085Z,98812.97
2023-05-16T12:54:48.397Z,98816.19
2023-05-16T12:57:35.068Z,98804.31
2023-05-16T13:00:21.738Z,98816.19
2023-05-16T13:03:10.130Z,98818.97
2023-05-16T13:05:55.419Z,98823.28
2023-05-16T13:08:40.651Z,98829.19
2023-05-16T13:11:26.393Z,98826.44
2023-05-16T13:14:11.697Z,98835.09
2023-05-16T13:16:56.886Z,98829.56
2023-05-16T13:19:42.338Z,98831.13
2023-05-16T13:22:27.667Z,98839.44
2023-05-16T13:25:13.106Z,98843.41
2023-05-16T13:27:58.404Z,98854.09
2023-05-16T13:30:43.602Z,98847.38
2023-05-16T13:33:29.215Z,98858.06
2023-05-16T13:36:14.937Z,98855.66
2023-05-16T13:39:00.261Z,98865.94
2023-05-16T13:41:47.375Z,98860.41
2023-05-16T13:44:38.137Z,98867.13
2023-05-16T13:47:26.192Z,98865.94
2023-05-16T13:50:12.270Z,98863.97
2023-05-16T13:52:58.012Z,98860.00
2023-05-16T13:55:43.507Z,98866.31
2023-05-16T13:58:28.874Z,98873.41
2023-05-16T14:01:14.808Z,98866.31
2023-05-16T14:04:00.358Z,98862.31
2023-05-16T14:06:45.564Z,98854.00
2023-05-16T14:09:31.686Z,98847.69
2023-05-16T14:12:17.325Z,98840.16
2023-05-16T14:15:02.593Z,98849.25
2023-05-16T14:17:48.122Z,98839.34
2023-05-16T14:20:33.686Z,98847.66
2023-05-16T14:23:18.880Z,98857.19
2023-05-16T14:26:06.984Z,98853.22
2023-05-16T14:28:53.269Z,98856.34
2023-05-16T14:31:38.581Z,98855.53
2023-05-16T14:34:24.416Z,98848.03
2023-05-16T14:37:11.883Z,98848.81
2023-05-16T14:39:57.764Z,98843.28
2023-05-16T14:42:43.333Z,98841.28
2023-05-16T14:45:29.359Z,98848.38
2023-05-16T14:48:14.953Z,98857.50
2023-05-16T14:51:00.807Z,98874.13
2023-05-16T14:53:47.312Z,98869.34
2023-05-16T14:56:32.761Z,98874.91
2023-05-16T14:59:17.865Z,98870.13
2023-05-16T15:02:04.076Z,98880.03
2023-05-16T15:04:49.810Z,98882.00
2023-05-16T15:07:35.517Z,98884.00
2023-05-16T15:10:20.998Z,98885.56
2023-05-16T15:13:06.479Z,98889.13
2023-05-16T15:15:52.437Z,98883.56
2023-05-16T15:18:38.106Z,98886.34
2023-05-16T15:21:23.962Z,98874.91
2023-05-16T15:24:09.529Z,98883.22
2023-05-16T15:26:55.538Z,98881.63
2023-05-16T15:29:41.240Z,98877.66
2023-05-16T15:32:26.982Z,98877.66
2023-05-16T15:35:12.501Z,98877.66
2023-05-16T15:37:59.750Z,98875.31
2023-05-16T15:40:45.235Z,98871.75
2023-05-16T15:43:30.549Z,98874.53
2023-05-16T15:46:16.204Z,98867.78
2023-05-16T15:49:01.638Z,98867.78
2023-05-16T15:51:47.747Z,98865.38
2023-05-16T15:54:33.657Z,98872.91
2023-05-16T15:57:19.296Z,98870.91
2023-05-16T16:00:05.790Z,98873.63
2023-05-16T16:02:57.595Z,98883.09
2023-05-16T16:05:43.067Z,98866.44
2023-05-16T16:08:28.280Z,98858.91
2023-05-16T16:11:13.504Z,98857.28
2023-05-16T16:13:58.975Z,98858.84
2023-05-16T16:16:45.469Z,98861.22
2023-05-16T16:19:32.507Z,98852.03
2023-05-16T16:22:17.692Z,98850.03
2023-05-16T16:25:03.047Z,98850.03
2023-05-16T16:27:48.359Z,98846.09
2023-05-16T16:30:34.094Z,98855.19
2023-05-16T16:33:19.697Z,98848.00
2023-05-16T16:36:06.135Z,98853.91
2023-05-16T16:38:51.487Z,98855.81
2023-05-16T16:41:36.761Z,98855.81
2023-05-16T16:44:22.314Z,98858.53
2023-05-16T16:47:08.570Z,98858.81
2023-05-16T16:50:23.403Z,98866.66
2023-05-16T16:53:11.503Z,98871.75
2023-05-16T16:55:57.100Z,98872.84
2023-05-16T16:58:42.398Z,98883.88
2023-05-16T17:01:29.863Z,98868.72
2023-05-16T17:04:15.756Z,98880.47
2023-05-16T17:07:01.839Z,98883.59
2023-05-16T17:09:47.792Z,98886.72
2023-05-16T17:12:34.550Z,98891.00
2023-05-16T17:15:20.916Z,98892.56
2023-05-16T17:18:09.311Z,98885.75
2023-05-16T17:20:56.006Z,98894.78
2023-05-16T17:23:44.359Z,98891.16
2023-05-16T17:26:35.086Z,98896.22
2023-05-16T17:29:21.817Z,98890.25
2023-05-16T17:32:07.446Z,98889.78
2023-05-16T17:34:54.406Z,98887.72
2023-05-16T17:37:39.828Z,98896.41
2023-05-16T17:40:25.196Z,98899.53
2023-05-16T17:43:10.491Z,98903.81
2023-05-16T17:45:56.044Z,98886.72
2023-05-16T17:48:42.381Z,98893.84
2023-05-16T17:51:28.334Z,98902.53
2023-05-16T17:54:17.290Z,98894.19
2023-05-16T17:57:02.978Z,98892.53
2023-05-16T17:59:48.385Z,98895.78
2023-05-16T18:02:36.644Z,98894.47
2023-05-16T18:05:24.360Z,98906.78
2023-05-16T18:08:09.719Z,98905.13
2023-05-16T18:10:55.582Z,98906.72
2023-05-16T18:13:41.000Z,98905.84
2023-05-16T18:16:26.685Z,98898.75
2023-05-16T18:20:09.548Z,98905.06
2023-05-16T18:22:54.860Z,98909.09
2023-05-16T18:25:40.160Z,98913.81
2023-05-16T18:28:25.568Z,98911.06
2023-05-16T18:31:11.744Z,98906.31
2023-05-16T18:33:57.731Z,98925.28
2023-05-16T18:36:43.373Z,98919.75
2023-05-16T18:39:28.644Z,98919.75
2023-05-16T18:42:15.898Z,98924.53
2023-05-16T18:45:01.503Z,98922.16
2023-05-16T18:47:47.286Z,98936.84
2023-05-16T18:50:32.894Z,98934.06
2023-05-16T18:53:18.324Z,98944.38
2023-05-16T18:56:04.919Z,98945.59
2023-05-16T18:58:50.806Z,98944.81
2023-05-16T19:01:37.000Z,98945.59
2023-05-16T19:04:22.574Z,98959.13
2023-05-16T19:07:09.390Z,98960.34
2023-05-16T19:09:54.967Z,98966.31
2023-05-16T19:12:40.678Z,98972.31
2023-05-16T19:15:26.388Z,98970.75
2023-05-16T19:18:12.031Z,98969.16
2023-05-16T19:20:57.529Z,98977.13
2023-05-16T19:23:42.887Z,98972.81
2023-05-16T19:26:28.560Z,98982.00
2023-05-16T19:29:13.914Z,98973.69
2023-05-16T19:31:59.311Z,98971.31
2023-05-16T19:34:45.011Z,98977.69
2023-05-16T19:37:30.922Z,98979.34
2023-05-16T19:40:17.380Z,98978.28
2023-05-16T19:43:03.278Z,98978.72
2023-05-16T19:45:48.882Z,98981.13
2023-05-16T19:48:35.297Z,98992.28
2023-05-16T19:51:33.217Z,98991.09
2023-05-16T19:54:26.285Z,98991.88
2023-05-16T19:57:11.837Z,99007.38
2023-05-16T19:59:56.974Z,99012.03
2023-05-16T20:02:43.280Z,99022.34
2023-05-16T20:05:29.300Z,99021.50
2023-05-16T20:08:15.051Z,99009.59
2023-05-16T20:11:00.365Z,99005.97
2023-05-16T20:13:45.678Z,99015.06
2023-05-16T20:16:31.061Z,99017.03
2023-05-16T20:22:04.965Z,99013.78
2023-05-16T20:24:50.327Z,99021.72
2023-05-16T20:27:35.753Z,99020.94
2023-05-16T20:30:21.124Z,99023.28
2023-05-16T20:33:06.630Z,99018.53
2023-05-16T20:35:52.624Z,99022.94
2023-05-16T20:38:38.921Z,99020.63
2023-05-16T20:41:26.845Z,99026.63
2023-05-16T20:44:12.095Z,99027.47
2023-05-16T20:46:57.255Z,99031.81
2023-05-16T20:49:42.583Z,99029.09
2023-05-16T20:52:28.013Z,99037.06
2023-05-16T20:55:13.467Z,99031.59
2023-05-16T20:58:00.352Z,99033.19
2023-05-16T21:00:48.138Z,99034.81
2023-05-16T21:03:33.422Z,99038.03
2023-05-16T21:06:18.884Z,99047.19
2023-05-16T21:09:04.881Z,99046.81
2023-05-16T21:11:50.226Z,99040.13
2023-05-16T21:14:35.512Z,99048.53
2023-05-16T21:17:21.411Z,99058.03
2023-05-16T21:20:08.310Z,99054.53
2023-05-16T21:22:53.862Z,99060.53
2023-05-16T21:25:41.135Z,99055.41
2023-05-16T21:28:26.577Z,99056.66
2023-05-16T21:31:11.751Z,99064.22
2023-05-16T21:33:57.038Z,99066.19
2023-05-16T21:36:42.278Z,99067.81
2023-05-16T21:39:27.672Z,99069.03
2023-05-16T21:42:13.745Z,99064.66
2023-05-16T21:44:59.220Z,99062.75
2023-05-16T21:47:45.576Z,99066.72
2023-05-16T21:50:31.259Z,99071.91
2023-05-16T21:53:17.635Z,99068.78
2023-05-16T21:56:03.312Z,99071.97
2023-05-16T21:58:48.525Z,99073.97
2023-05-16T22:01:33.969Z,99066.50
2023-05-16T22:04:19.309Z,99073.59
2023-05-16T22:07:05.255Z,99080.00
2023-05-16T22:09:53.590Z,99079.19
2023-05-16T22:12:39.189Z,99087.13
2023-05-16T22:15:24.458Z,99084.78
2023-05-16T22:18:10.330Z,99088.75
2023-05-16T22:20:55.920Z,99091.97
2023-05-16T22:23:41.547Z,99098.28
2023-05-16T22:26:26.777Z,99089.59
2023-05-16T22:29:11.995Z,99094.38
2023-05-16T22:31:57.349Z,99101.53
2023-05-16T22:34:42.564Z,99101.53
2023-05-16T22:37:28.055Z,99105.50
2023-05-16T22:40:13.201Z,99103.94
2023-05-16T22:42:58.671Z,99099.59
2023-05-16T22:45:44.037Z,99103.59
2023-05-16T22:48:29.562Z,99106.34
2023-05-16T22:51:15.522Z,99115.84
2023-05-16T22:54:00.890Z,99111.53
2023-05-16T22:56:46.126Z,99107.16
2023-05-16T22:59:31.390Z,99115.50
2023-05-16T23:02:16.714Z,99120.25
2023-05-16T23:05:02.673Z,99117.91
2023-05-16T23:07:48.062Z,99134.97
2023-05-16T23:10:33.350Z,99131.41
2023-05-16T23:13:18.673Z,99139.72
2023-05-16T23:16:04.117Z,99143.69
2023-05-16T23:18:49.621Z,99134.59
2023-05-16T23:21:35.256Z,99134.59
2023-05-16T23:24:20.707Z,99139.78
2023-05-16T23:27:06.109Z,99132.63
2023-05-16T23:29:51.448Z,99140.19
2023-05-16T23:32:36.906Z,99135.06
2023-05-16T23:35:22.242Z,99150.88
2023-05-16T23:38:07.677Z,99152.09
2023-05-16T23:40:53.021Z,99154.09
2023-05-16T23:43:38.286Z,99156.88
2023-05-16T23:46:23.449Z,99164.38
2023-05-16T23:49:08.849Z,99171.91
2023-05-16T23:51:57.855Z,99172.34
2023-05-16T23:54:45.454Z,99166.81
2023-05-16T23:57:30.664Z,99159.69
